createdAt,value
2022-12-08T00:00:09.936Z,24.74
2022-12-08T00:00:19.917Z,24.75
2022-12-08T00:00:29.918Z,24.74
2022-12-08T00:00:39.981Z,24.73
2022-12-08T00:00:49.992Z,24.74
2022-12-08T00:01:00.077Z,24.74
2022-12-08T00:01:10.225Z,24.74
2022-12-08T00:01:20.353Z,24.74
2022-12-08T00:01:30.359Z,24.74
2022-12-08T00:01:40.806Z,24.74
2022-12-08T00:01:50.893Z,24.74
2022-12-08T00:02:01.130Z,24.73
2022-12-08T00:02:11.402Z,24.73
2022-12-08T00:02:21.417Z,24.74
2022-12-08T00:02:31.564Z,24.73
2022-12-08T00:02:41.523Z,24.73
2022-12-08T00:02:51.651Z,24.73
2022-12-08T00:03:01.643Z,24.72
2022-12-08T00:03:11.724Z,24.73
2022-12-08T00:03:21.827Z,24.73
2022-12-08T00:03:31.815Z,24.72
2022-12-08T00:03:41.949Z,24.72
2022-12-08T00:03:51.846Z,24.73
2022-12-08T00:04:01.848Z,24.72
2022-12-08T00:04:11.853Z,24.72
2022-12-08T00:04:21.867Z,24.73
2022-12-08T00:04:31.880Z,24.73
2022-12-08T00:04:41.886Z,24.73
2022-12-08T00:04:51.891Z,24.73
2022-12-08T00:05:02.348Z,24.73
2022-12-08T00:05:12.170Z,24.72
2022-12-08T00:05:22.191Z,24.72
2022-12-08T00:05:32.175Z,24.72
2022-12-08T00:05:42.556Z,24.73
2022-12-08T00:05:52.558Z,24.73
2022-12-08T00:06:02.573Z,24.73
2022-12-08T00:06:12.631Z,24.73
2022-12-08T00:06:22.652Z,24.73
2022-12-08T00:06:32.654Z,24.74
2022-12-08T00:06:42.661Z,24.74
2022-12-08T00:06:52.665Z,24.73
2022-12-08T00:07:02.788Z,24.73
2022-12-08T00:07:12.787Z,24.74
2022-12-08T00:07:23.052Z,24.74
2022-12-08T00:07:33.055Z,24.73
2022-12-08T00:07:43.095Z,24.74
2022-12-08T00:07:53.143Z,24.74
2022-12-08T00:08:03.246Z,24.73
2022-12-08T00:08:13.351Z,24.73
2022-12-08T00:08:23.443Z,24.73
2022-12-08T00:08:33.449Z,24.73
2022-12-08T00:08:43.444Z,24.73
2022-12-08T00:08:53.457Z,24.73
2022-12-08T00:09:03.580Z,24.73
2022-12-08T00:09:13.595Z,24.73
2022-12-08T00:09:23.702Z,24.72
2022-12-08T00:09:38.641Z,24.72
2022-12-08T00:09:43.844Z,24.65
2022-12-08T00:09:53.840Z,24.68
2022-12-08T00:10:18.832Z,24.69
2022-12-08T00:10:46.678Z,24.64
2022-12-08T00:10:48.035Z,24.61
2022-12-08T00:10:49.027Z,24.58
2022-12-08T00:10:51.040Z,24.56
2022-12-08T00:10:53.893Z,24.54
2022-12-08T00:11:03.884Z,24.58
2022-12-08T00:11:13.898Z,24.61
2022-12-08T00:11:24.023Z,24.63
2022-12-08T00:11:34.028Z,24.64
2022-12-08T00:11:44.105Z,24.66
2022-12-08T00:11:54.101Z,24.66
2022-12-08T00:12:04.227Z,24.67
2022-12-08T00:12:14.490Z,24.67
2022-12-08T00:12:24.608Z,24.68
2022-12-08T00:12:34.608Z,24.68
2022-12-08T00:12:44.858Z,24.69
2022-12-08T00:12:54.877Z,24.70
2022-12-08T00:13:04.882Z,24.71
2022-12-08T00:13:14.894Z,24.71
2022-12-08T00:13:24.908Z,24.71
2022-12-08T00:13:34.907Z,24.71
2022-12-08T00:13:45.026Z,24.72
2022-12-08T00:13:55.042Z,24.72
2022-12-08T00:14:05.048Z,24.72
2022-12-08T00:14:15.055Z,24.71
2022-12-08T00:14:25.319Z,24.72
2022-12-08T00:14:35.314Z,24.72
2022-12-08T00:14:45.442Z,24.71
2022-12-08T00:14:55.694Z,24.72
2022-12-08T00:15:06.090Z,24.71
2022-12-08T00:15:15.816Z,24.72
2022-12-08T00:15:25.793Z,24.71
2022-12-08T00:15:35.801Z,24.72
2022-12-08T00:15:45.919Z,24.72
2022-12-08T00:15:55.917Z,24.72
2022-12-08T00:16:06.044Z,24.72
2022-12-08T00:16:16.133Z,24.71
2022-12-08T00:16:26.298Z,24.71
2022-12-08T00:16:36.413Z,24.72
2022-12-08T00:16:46.507Z,24.72
2022-12-08T00:16:56.564Z,24.72
2022-12-08T00:17:06.701Z,24.72
2022-12-08T00:17:16.650Z,24.71
2022-12-08T00:17:26.779Z,24.71
2022-12-08T00:17:36.790Z,24.72
2022-12-08T00:17:46.798Z,24.71
2022-12-08T00:17:56.814Z,24.72
2022-12-08T00:18:06.821Z,24.71
2022-12-08T00:18:16.829Z,24.72
2022-12-08T00:18:26.841Z,24.72
2022-12-08T00:18:36.853Z,24.72
2022-12-08T00:18:46.862Z,24.73
2022-12-08T00:18:56.869Z,24.72
2022-12-08T00:19:06.993Z,24.72
2022-12-08T00:19:17.015Z,24.73
2022-12-08T00:19:27.277Z,24.72
2022-12-08T00:19:37.281Z,24.72
2022-12-08T00:19:47.286Z,24.72
2022-12-08T00:19:57.287Z,24.72
2022-12-08T00:20:07.413Z,24.72
2022-12-08T00:20:17.416Z,24.73
2022-12-08T00:20:27.423Z,24.72
2022-12-08T00:20:37.439Z,24.73
2022-12-08T00:20:47.443Z,24.73
2022-12-08T00:20:57.453Z,24.73
2022-12-08T00:21:07.717Z,24.74
2022-12-08T00:21:17.722Z,24.74
2022-12-08T00:21:27.743Z,24.74
2022-12-08T00:21:37.744Z,24.74
2022-12-08T00:21:47.756Z,24.74
2022-12-08T00:21:57.764Z,24.75
2022-12-08T00:22:07.878Z,24.74
2022-12-08T00:22:17.881Z,24.74
2022-12-08T00:22:28.006Z,24.75
2022-12-08T00:22:38.006Z,24.74
2022-12-08T00:22:48.134Z,24.75
2022-12-08T00:22:58.134Z,24.75
2022-12-08T00:23:08.253Z,24.75
2022-12-08T00:23:18.516Z,24.75
2022-12-08T00:23:28.637Z,24.75
2022-12-08T00:23:38.647Z,24.74
2022-12-08T00:23:48.901Z,24.75
2022-12-08T00:23:58.904Z,24.75
2022-12-08T00:24:08.916Z,24.75
2022-12-08T00:24:18.913Z,24.74
2022-12-08T00:24:29.037Z,24.74
2022-12-08T00:24:39.042Z,24.74
2022-12-08T00:24:49.045Z,24.74
2022-12-08T00:24:59.047Z,24.73
2022-12-08T00:25:09.052Z,24.74
2022-12-08T00:25:19.085Z,24.74
2022-12-08T00:25:29.343Z,24.74
2022-12-08T00:25:39.335Z,24.74
2022-12-08T00:25:49.340Z,24.74
2022-12-08T00:25:59.351Z,24.74
2022-12-08T00:26:09.373Z,24.74
2022-12-08T00:26:19.373Z,24.74
2022-12-08T00:26:29.402Z,24.74
2022-12-08T00:26:39.399Z,24.74
2022-12-08T00:26:49.405Z,24.74
2022-12-08T00:26:59.409Z,24.74
2022-12-08T00:27:09.426Z,24.74
2022-12-08T00:27:19.440Z,24.73
2022-12-08T00:27:29.445Z,24.73
2022-12-08T00:27:39.450Z,24.73
2022-12-08T00:27:49.487Z,24.73
2022-12-08T00:27:59.487Z,24.73
2022-12-08T00:28:09.616Z,24.72
2022-12-08T00:28:19.877Z,24.73
2022-12-08T00:28:29.889Z,24.73
2022-12-08T00:28:39.920Z,24.73
2022-12-08T00:28:49.932Z,24.72
2022-12-08T00:28:59.940Z,24.72
2022-12-08T00:29:14.487Z,24.73
2022-12-08T00:29:19.943Z,24.68
2022-12-08T00:29:30.041Z,24.69
2022-12-08T00:29:40.031Z,24.71
2022-12-08T00:29:50.038Z,24.71
2022-12-08T00:30:00.045Z,24.70
2022-12-08T00:30:10.183Z,24.71
2022-12-08T00:30:20.212Z,24.72
2022-12-08T00:30:30.204Z,24.72
2022-12-08T00:30:40.214Z,24.72
2022-12-08T00:30:50.226Z,24.72
2022-12-08T00:31:00.230Z,24.73
2022-12-08T00:31:10.234Z,24.72
2022-12-08T00:31:20.308Z,24.73
2022-12-08T00:31:30.354Z,24.73
2022-12-08T00:31:40.512Z,24.72
2022-12-08T00:31:50.550Z,24.73
2022-12-08T00:32:00.580Z,24.72
2022-12-08T00:32:10.622Z,24.72
2022-12-08T00:32:20.744Z,24.72
2022-12-08T00:32:30.810Z,24.72
2022-12-08T00:32:40.816Z,24.73
2022-12-08T00:32:50.818Z,24.73
2022-12-08T00:33:00.830Z,24.73
2022-12-08T00:33:10.843Z,24.73
2022-12-08T00:33:20.870Z,24.73
2022-12-08T00:33:30.878Z,24.73
2022-12-08T00:33:40.879Z,24.73
2022-12-08T00:33:50.999Z,24.73
2022-12-08T00:34:00.999Z,24.73
2022-12-08T00:34:11.265Z,24.73
2022-12-08T00:34:21.267Z,24.74
2022-12-08T00:34:31.271Z,24.74
2022-12-08T00:34:41.288Z,24.74
2022-12-08T00:34:51.417Z,24.75
2022-12-08T00:35:02.012Z,24.74
2022-12-08T00:35:11.546Z,24.74
2022-12-08T00:35:21.556Z,24.74
2022-12-08T00:35:31.689Z,24.74
2022-12-08T00:35:43.378Z,24.74
2022-12-08T00:35:51.725Z,24.72
2022-12-08T00:36:01.726Z,24.72
2022-12-08T00:36:11.737Z,24.72
2022-12-08T00:36:21.738Z,24.73
2022-12-08T00:36:31.759Z,24.72
2022-12-08T00:36:41.764Z,24.73
2022-12-08T00:36:51.767Z,24.73
2022-12-08T00:37:01.773Z,24.73
2022-12-08T00:37:11.784Z,24.73
2022-12-08T00:37:21.807Z,24.73
2022-12-08T00:37:31.807Z,24.73
2022-12-08T00:37:41.814Z,24.74
2022-12-08T00:37:56.131Z,24.73
2022-12-08T00:38:01.824Z,24.68
2022-12-08T00:38:11.822Z,24.69
2022-12-08T00:38:21.829Z,24.71
2022-12-08T00:38:31.836Z,24.71
2022-12-08T00:38:41.841Z,24.71
2022-12-08T00:38:51.972Z,24.72
2022-12-08T00:39:02.099Z,24.72
2022-12-08T00:39:12.112Z,24.72
2022-12-08T00:39:22.362Z,24.73
2022-12-08T00:39:32.362Z,24.73
2022-12-08T00:39:42.370Z,24.73
2022-12-08T00:39:52.378Z,24.72
2022-12-08T00:40:02.802Z,24.73
2022-12-08T00:40:12.435Z,24.73
2022-12-08T00:40:22.471Z,24.73
2022-12-08T00:40:32.490Z,24.73
2022-12-08T00:40:42.483Z,24.73
2022-12-08T00:40:52.476Z,24.74
2022-12-08T00:41:02.863Z,24.74
2022-12-08T00:41:12.861Z,24.73
2022-12-08T00:41:23.002Z,24.73
2022-12-08T00:41:33.259Z,24.74
2022-12-08T00:41:43.383Z,24.74
2022-12-08T00:41:53.437Z,24.74
2022-12-08T00:42:03.698Z,24.74
2022-12-08T00:42:13.782Z,24.74
2022-12-08T00:42:23.781Z,24.74
2022-12-08T00:42:33.780Z,24.74
2022-12-08T00:42:43.802Z,24.74
2022-12-08T00:42:53.794Z,24.73
2022-12-08T00:43:03.798Z,24.74
2022-12-08T00:43:13.836Z,24.73
2022-12-08T00:43:23.819Z,24.73
2022-12-08T00:43:33.838Z,24.73
2022-12-08T00:43:43.838Z,24.73
2022-12-08T00:43:53.853Z,24.74
2022-12-08T00:44:03.859Z,24.74
2022-12-08T00:44:13.873Z,24.74
2022-12-08T00:44:23.878Z,24.74
2022-12-08T00:44:33.906Z,24.74
2022-12-08T00:44:43.924Z,24.74
2022-12-08T00:44:53.912Z,24.74
2022-12-08T00:45:04.036Z,24.74
2022-12-08T00:45:14.035Z,24.74
2022-12-08T00:45:24.067Z,24.74
2022-12-08T00:45:34.094Z,24.74
2022-12-08T00:45:44.123Z,24.74
2022-12-08T00:45:54.204Z,24.74
2022-12-08T00:46:04.477Z,24.74
2022-12-08T00:46:14.442Z,24.74
2022-12-08T00:46:24.495Z,24.73
2022-12-08T00:46:34.476Z,24.73
2022-12-08T00:46:44.488Z,24.74
2022-12-08T00:46:54.497Z,24.74
2022-12-08T00:47:04.498Z,24.73
2022-12-08T00:47:14.518Z,24.73
2022-12-08T00:47:25.130Z,24.74
2022-12-08T00:47:34.603Z,24.74
2022-12-08T00:47:44.985Z,24.73
2022-12-08T00:47:54.988Z,24.74
2022-12-08T00:48:04.997Z,24.74
2022-12-08T00:48:15.018Z,24.73
2022-12-08T00:48:25.024Z,24.74
2022-12-08T00:48:35.027Z,24.74
2022-12-08T00:48:45.020Z,24.74
2022-12-08T00:48:55.030Z,24.74
2022-12-08T00:49:05.039Z,24.73
2022-12-08T00:49:15.053Z,24.72
2022-12-08T00:49:25.053Z,24.73
2022-12-08T00:49:35.064Z,24.73
2022-12-08T00:49:45.063Z,24.73
2022-12-08T00:49:55.062Z,24.73
2022-12-08T00:50:05.259Z,24.74
2022-12-08T00:50:15.091Z,24.74
2022-12-08T00:50:25.105Z,24.74
2022-12-08T00:50:35.124Z,24.76
2022-12-08T00:50:45.122Z,24.74
2022-12-08T00:50:55.122Z,24.75
2022-12-08T00:51:05.252Z,24.76
2022-12-08T00:51:15.249Z,24.76
2022-12-08T00:51:25.270Z,24.76
2022-12-08T00:51:35.270Z,24.77
2022-12-08T00:51:45.551Z,24.77
2022-12-08T00:51:55.555Z,24.78
2022-12-08T00:52:05.666Z,24.77
2022-12-08T00:52:15.924Z,24.77
2022-12-08T00:52:25.929Z,24.78
2022-12-08T00:52:35.932Z,24.78
2022-12-08T00:52:45.950Z,24.78
2022-12-08T00:52:55.958Z,24.78
2022-12-08T00:53:05.962Z,24.78
2022-12-08T00:53:15.983Z,24.78
2022-12-08T00:53:25.990Z,24.79
2022-12-08T00:53:35.986Z,24.80
2022-12-08T00:53:46.006Z,24.80
2022-12-08T00:53:56.006Z,24.80
2022-12-08T00:54:06.028Z,24.82
2022-12-08T00:54:16.026Z,24.81
2022-12-08T00:54:26.037Z,24.81
2022-12-08T00:54:36.059Z,24.79
2022-12-08T00:54:46.060Z,24.79
2022-12-08T00:54:56.061Z,24.80
2022-12-08T00:55:06.074Z,24.81
2022-12-08T00:55:16.091Z,24.80
2022-12-08T00:55:26.098Z,24.81
2022-12-08T00:55:36.108Z,24.81
2022-12-08T00:55:46.125Z,24.81
2022-12-08T00:55:56.145Z,24.81
2022-12-08T00:56:06.132Z,24.81
2022-12-08T00:56:16.148Z,24.80
2022-12-08T00:56:26.159Z,24.79
2022-12-08T00:56:36.160Z,24.80
2022-12-08T00:56:46.161Z,24.80
2022-12-08T00:56:56.166Z,24.79
2022-12-08T00:57:06.316Z,24.79
2022-12-08T00:57:16.316Z,24.79
2022-12-08T00:57:26.579Z,24.79
2022-12-08T00:57:36.584Z,24.78
2022-12-08T00:57:46.588Z,24.77
2022-12-08T00:57:56.588Z,24.77
2022-12-08T00:58:06.718Z,24.76
2022-12-08T00:58:16.725Z,24.76
2022-12-08T00:58:26.729Z,24.76
2022-12-08T00:58:36.734Z,24.75
2022-12-08T00:58:46.861Z,24.76
2022-12-08T00:58:56.865Z,24.75
2022-12-08T00:59:06.998Z,24.75
2022-12-08T00:59:17.003Z,24.74
2022-12-08T00:59:27.125Z,24.74
2022-12-08T00:59:37.385Z,24.74
2022-12-08T00:59:47.508Z,24.74
2022-12-08T00:59:57.513Z,24.74
2022-12-08T01:00:07.777Z,24.74
2022-12-08T01:00:17.781Z,24.74
2022-12-08T01:00:27.964Z,24.73
2022-12-08T01:00:38.201Z,24.73
2022-12-08T01:00:48.225Z,24.73
2022-12-08T01:00:58.282Z,24.73
2022-12-08T01:01:08.363Z,24.72
2022-12-08T01:01:18.428Z,24.71
2022-12-08T01:01:28.492Z,24.72
2022-12-08T01:01:38.577Z,24.71
2022-12-08T01:01:48.572Z,24.72
2022-12-08T01:01:58.584Z,24.72
2022-12-08T01:02:08.597Z,24.71
2022-12-08T01:02:18.602Z,24.71
2022-12-08T01:02:28.618Z,24.70
2022-12-08T01:02:38.618Z,24.70
2022-12-08T01:02:48.697Z,24.70
2022-12-08T01:02:58.740Z,24.70
2022-12-08T01:03:08.816Z,24.70
2022-12-08T01:03:18.898Z,24.69
2022-12-08T01:03:28.923Z,24.69
2022-12-08T01:03:38.995Z,24.68
2022-12-08T01:03:49.138Z,24.68
2022-12-08T01:03:59.140Z,24.68
2022-12-08T01:04:09.151Z,24.68
2022-12-08T01:04:19.158Z,24.68
2022-12-08T01:04:29.184Z,24.67
2022-12-08T01:04:39.317Z,24.67
2022-12-08T01:04:49.435Z,24.66
2022-12-08T01:04:59.437Z,24.66
2022-12-08T01:05:09.722Z,24.65
2022-12-08T01:05:19.725Z,24.64
2022-12-08T01:05:29.849Z,24.63
2022-12-08T01:05:40.106Z,24.63
2022-12-08T01:05:50.129Z,24.62
2022-12-08T01:06:00.129Z,24.62
2022-12-08T01:06:10.144Z,24.62
2022-12-08T01:06:20.150Z,24.62
2022-12-08T01:06:30.154Z,24.62
2022-12-08T01:06:40.159Z,24.62
2022-12-08T01:06:50.174Z,24.61
2022-12-08T01:07:00.178Z,24.61
2022-12-08T01:07:10.183Z,24.60
2022-12-08T01:07:20.183Z,24.60
2022-12-08T01:07:30.316Z,24.60
2022-12-08T01:07:40.386Z,24.60
2022-12-08T01:07:50.472Z,24.60
2022-12-08T01:08:00.571Z,24.60
2022-12-08T01:08:10.697Z,24.60
2022-12-08T01:08:20.806Z,24.61
2022-12-08T01:08:30.737Z,24.60
2022-12-08T01:08:40.750Z,24.60
2022-12-08T01:08:50.752Z,24.61
2022-12-08T01:09:00.753Z,24.61
2022-12-08T01:09:10.772Z,24.61
2022-12-08T01:09:20.770Z,24.60
2022-12-08T01:09:30.890Z,24.61
2022-12-08T01:09:40.901Z,24.60
2022-12-08T01:09:50.905Z,24.60
2022-12-08T01:10:01.097Z,24.60
2022-12-08T01:10:11.187Z,24.59
2022-12-08T01:10:21.188Z,24.59
2022-12-08T01:10:31.189Z,24.59
2022-12-08T01:10:41.202Z,24.58
2022-12-08T01:10:51.224Z,24.58
2022-12-08T01:11:01.228Z,24.58
2022-12-08T01:11:11.241Z,24.57
2022-12-08T01:11:21.250Z,24.57
2022-12-08T01:11:31.253Z,24.58
2022-12-08T01:11:41.264Z,24.57
2022-12-08T01:11:51.266Z,24.57
2022-12-08T01:12:01.284Z,24.57
2022-12-08T01:12:11.308Z,24.57
2022-12-08T01:12:21.307Z,24.56
2022-12-08T01:12:31.330Z,24.56
2022-12-08T01:12:41.323Z,24.56
2022-12-08T01:12:51.329Z,24.56
2022-12-08T01:13:01.347Z,24.56
2022-12-08T01:13:11.359Z,24.55
2022-12-08T01:13:21.365Z,24.55
2022-12-08T01:13:31.382Z,24.55
2022-12-08T01:13:41.387Z,24.55
2022-12-08T01:13:51.398Z,24.54
2022-12-08T01:14:01.410Z,24.54
2022-12-08T01:14:11.424Z,24.54
2022-12-08T01:14:21.432Z,24.53
2022-12-08T01:14:31.566Z,24.53
2022-12-08T01:14:41.578Z,24.53
2022-12-08T01:14:51.585Z,24.52
2022-12-08T01:15:02.805Z,24.52
2022-12-08T01:15:11.608Z,24.51
2022-12-08T01:15:21.873Z,24.50
2022-12-08T01:15:31.892Z,24.50
2022-12-08T01:15:41.879Z,24.50
2022-12-08T01:15:52.258Z,24.49
2022-12-08T01:16:02.263Z,24.50
2022-12-08T01:16:12.426Z,24.49
2022-12-08T01:16:22.719Z,24.49
2022-12-08T01:16:32.823Z,24.49
2022-12-08T01:16:42.898Z,24.49
2022-12-08T01:16:53.331Z,24.48
2022-12-08T01:17:03.360Z,24.48
2022-12-08T01:17:13.389Z,24.48
2022-12-08T01:17:23.659Z,24.48
2022-12-08T01:17:33.691Z,24.47
2022-12-08T01:17:43.676Z,24.48
2022-12-08T01:17:53.681Z,24.47
2022-12-08T01:18:03.688Z,24.47
2022-12-08T01:18:13.693Z,24.47
2022-12-08T01:18:23.697Z,24.48
2022-12-08T01:18:33.712Z,24.47
2022-12-08T01:18:43.722Z,24.47
2022-12-08T01:18:53.727Z,24.46
2022-12-08T01:19:03.735Z,24.46
2022-12-08T01:19:13.750Z,24.47
2022-12-08T01:19:23.765Z,24.45
2022-12-08T01:19:33.767Z,24.46
2022-12-08T01:19:43.776Z,24.45
2022-12-08T01:19:53.788Z,24.45
2022-12-08T01:20:04.001Z,24.44
2022-12-08T01:20:13.826Z,24.44
2022-12-08T01:20:23.952Z,24.44
2022-12-08T01:20:33.953Z,24.43
2022-12-08T01:20:44.075Z,24.42
2022-12-08T01:20:54.081Z,24.43
2022-12-08T01:21:04.088Z,24.42
2022-12-08T01:21:14.089Z,24.42
2022-12-08T01:21:24.215Z,24.42
2022-12-08T01:21:34.223Z,24.41
2022-12-08T01:21:44.241Z,24.41
2022-12-08T01:21:54.251Z,24.41
2022-12-08T01:22:04.245Z,24.41
2022-12-08T01:22:14.261Z,24.40
2022-12-08T01:22:24.256Z,24.40
2022-12-08T01:22:34.279Z,24.39
2022-12-08T01:22:44.276Z,24.39
2022-12-08T01:22:54.277Z,24.39
2022-12-08T01:23:04.280Z,24.38
2022-12-08T01:23:14.289Z,24.38
2022-12-08T01:23:24.294Z,24.38
2022-12-08T01:23:34.314Z,24.38
2022-12-08T01:23:44.316Z,24.38
2022-12-08T01:23:54.327Z,24.37
2022-12-08T01:24:04.320Z,24.37
2022-12-08T01:24:14.319Z,24.36
2022-12-08T01:24:24.333Z,24.36
2022-12-08T01:24:34.328Z,24.35
2022-12-08T01:24:44.332Z,24.36
2022-12-08T01:24:54.357Z,24.35
2022-12-08T01:25:04.364Z,24.35
2022-12-08T01:25:14.364Z,24.35
2022-12-08T01:25:24.378Z,24.35
2022-12-08T01:25:34.394Z,24.34
2022-12-08T01:25:44.401Z,24.34
2022-12-08T01:25:54.402Z,24.34
2022-12-08T01:26:04.416Z,24.33
2022-12-08T01:26:14.429Z,24.32
2022-12-08T01:26:24.433Z,24.33
2022-12-08T01:26:34.444Z,24.32
2022-12-08T01:26:44.471Z,24.32
2022-12-08T01:26:54.467Z,24.32
2022-12-08T01:27:04.479Z,24.31
2022-12-08T01:27:14.496Z,24.31
2022-12-08T01:27:24.498Z,24.31
2022-12-08T01:27:34.501Z,24.30
2022-12-08T01:27:44.502Z,24.31
2022-12-08T01:27:54.524Z,24.30
2022-12-08T01:28:04.538Z,24.30
2022-12-08T01:28:14.539Z,24.29
2022-12-08T01:28:24.546Z,24.29
2022-12-08T01:28:34.547Z,24.30
2022-12-08T01:28:44.560Z,24.29
2022-12-08T01:28:54.563Z,24.28
2022-12-08T01:29:04.684Z,24.28
2022-12-08T01:29:14.690Z,24.27
2022-12-08T01:29:24.687Z,24.28
2022-12-08T01:29:34.703Z,24.27
2022-12-08T01:29:44.821Z,24.27
2022-12-08T01:29:54.822Z,24.26
2022-12-08T01:30:05.236Z,24.26
2022-12-08T01:30:14.942Z,24.26
2022-12-08T01:30:25.168Z,24.26
2022-12-08T01:30:35.385Z,24.25
2022-12-08T01:30:45.433Z,24.25
2022-12-08T01:30:55.500Z,24.24
2022-12-08T01:31:05.578Z,24.24
2022-12-08T01:31:15.713Z,24.25
2022-12-08T01:31:25.707Z,24.24
2022-12-08T01:31:35.715Z,24.24
2022-12-08T01:31:45.713Z,24.23
2022-12-08T01:31:55.718Z,24.23
2022-12-08T01:32:05.732Z,24.23
2022-12-08T01:32:15.724Z,24.23
2022-12-08T01:32:25.852Z,24.22
2022-12-08T01:32:35.863Z,24.23
2022-12-08T01:32:45.865Z,24.22
2022-12-08T01:32:55.880Z,24.22
2022-12-08T01:33:05.884Z,24.21
2022-12-08T01:33:15.880Z,24.21
2022-12-08T01:33:26.142Z,24.20
2022-12-08T01:33:36.143Z,24.20
2022-12-08T01:33:46.153Z,24.20
2022-12-08T01:33:56.153Z,24.19
2022-12-08T01:34:06.169Z,24.20
2022-12-08T01:34:16.164Z,24.20
2022-12-08T01:34:26.284Z,24.20
2022-12-08T01:34:36.302Z,24.20
2022-12-08T01:34:46.295Z,24.19
2022-12-08T01:34:56.303Z,24.20
2022-12-08T01:35:06.559Z,24.19
2022-12-08T01:35:16.561Z,24.18
2022-12-08T01:35:26.572Z,24.18
2022-12-08T01:35:36.585Z,24.18
2022-12-08T01:35:46.592Z,24.18
2022-12-08T01:35:56.602Z,24.17
2022-12-08T01:36:06.610Z,24.17
2022-12-08T01:36:16.624Z,24.17
2022-12-08T01:36:26.628Z,24.17
2022-12-08T01:36:36.642Z,24.17
2022-12-08T01:36:46.658Z,24.16
2022-12-08T01:36:56.684Z,24.16
2022-12-08T01:37:06.682Z,24.16
2022-12-08T01:37:16.697Z,24.16
2022-12-08T01:37:26.693Z,24.15
2022-12-08T01:37:36.704Z,24.15
2022-12-08T01:37:46.707Z,24.14
2022-12-08T01:37:56.733Z,24.14
2022-12-08T01:38:06.733Z,24.14
2022-12-08T01:38:16.744Z,24.14
2022-12-08T01:38:26.752Z,24.14
2022-12-08T01:38:36.761Z,24.14
2022-12-08T01:38:46.775Z,24.14
2022-12-08T01:38:56.774Z,24.13
2022-12-08T01:39:06.815Z,24.14
2022-12-08T01:39:16.811Z,24.12
2022-12-08T01:39:26.949Z,24.13
2022-12-08T01:39:36.960Z,24.13
2022-12-08T01:39:46.976Z,24.12
2022-12-08T01:39:56.977Z,24.12
2022-12-08T01:40:07.417Z,24.12
2022-12-08T01:40:17.310Z,24.12
2022-12-08T01:40:27.431Z,24.11
2022-12-08T01:40:37.434Z,24.11
2022-12-08T01:40:47.698Z,24.12
2022-12-08T01:40:57.699Z,24.11
2022-12-08T01:41:07.713Z,24.11
2022-12-08T01:41:17.716Z,24.10
2022-12-08T01:41:27.840Z,24.11
2022-12-08T01:41:37.850Z,24.10
2022-12-08T01:41:47.854Z,24.10
2022-12-08T01:41:57.858Z,24.09
2022-12-08T01:42:07.874Z,24.09
2022-12-08T01:42:17.874Z,24.09
2022-12-08T01:42:28.135Z,24.08
2022-12-08T01:42:38.135Z,24.09
2022-12-08T01:42:48.261Z,24.08
2022-12-08T01:42:58.514Z,24.08
2022-12-08T01:43:08.637Z,24.08
2022-12-08T01:43:18.638Z,24.08
2022-12-08T01:43:28.912Z,24.07
2022-12-08T01:43:38.910Z,24.08
2022-12-08T01:43:49.029Z,24.08
2022-12-08T01:43:59.289Z,24.07
2022-12-08T01:44:09.451Z,24.07
2022-12-08T01:44:19.432Z,24.07
2022-12-08T01:44:29.704Z,24.06
2022-12-08T01:44:39.715Z,24.07
2022-12-08T01:44:49.735Z,24.07
2022-12-08T01:44:59.750Z,24.06
2022-12-08T01:45:09.749Z,24.06
2022-12-08T01:45:19.747Z,24.05
2022-12-08T01:45:29.768Z,24.05
2022-12-08T01:45:39.845Z,24.05
2022-12-08T01:45:49.867Z,24.04
2022-12-08T01:45:59.891Z,24.05
2022-12-08T01:46:09.937Z,24.04
2022-12-08T01:46:20.097Z,24.04
2022-12-08T01:46:30.185Z,24.03
2022-12-08T01:46:40.268Z,24.04
2022-12-08T01:46:50.182Z,24.03
2022-12-08T01:47:00.191Z,24.03
2022-12-08T01:47:10.215Z,24.03
2022-12-08T01:47:20.215Z,24.02
2022-12-08T01:47:30.279Z,24.01
2022-12-08T01:47:40.326Z,24.01
2022-12-08T01:47:50.442Z,24.01
2022-12-08T01:48:00.437Z,24.00
2022-12-08T01:48:10.408Z,23.99
2022-12-08T01:48:20.507Z,24.00
2022-12-08T01:48:30.514Z,24.00
2022-12-08T01:48:40.530Z,24.00
2022-12-08T01:48:50.650Z,24.00
2022-12-08T01:49:00.655Z,23.99
2022-12-08T01:49:10.656Z,24.00
2022-12-08T01:49:20.668Z,24.00
2022-12-08T01:49:30.679Z,23.99
2022-12-08T01:49:40.954Z,23.99
2022-12-08T01:49:50.945Z,23.98
2022-12-08T01:50:01.338Z,23.99
2022-12-08T01:50:11.030Z,23.98
2022-12-08T01:50:21.037Z,23.98
2022-12-08T01:50:31.047Z,23.98
2022-12-08T01:50:41.042Z,23.99
2022-12-08T01:50:51.050Z,23.99
2022-12-08T01:51:01.052Z,23.98
2022-12-08T01:51:11.174Z,23.99
2022-12-08T01:51:21.443Z,23.99
2022-12-08T01:51:31.562Z,23.98
2022-12-08T01:51:41.571Z,23.98
2022-12-08T01:51:51.839Z,23.98
2022-12-08T01:52:01.826Z,23.98
2022-12-08T01:52:11.955Z,23.98
2022-12-08T01:52:22.219Z,23.98
2022-12-08T01:52:32.339Z,23.98
2022-12-08T01:52:42.345Z,23.97
2022-12-08T01:52:52.613Z,23.97
2022-12-08T01:53:02.622Z,23.97
2022-12-08T01:53:12.629Z,23.98
2022-12-08T01:53:22.633Z,23.97
2022-12-08T01:53:32.651Z,23.97
2022-12-08T01:53:42.654Z,23.96
2022-12-08T01:53:52.667Z,23.96
2022-12-08T01:54:02.684Z,23.96
2022-12-08T01:54:12.689Z,23.95
2022-12-08T01:54:22.693Z,23.96
2022-12-08T01:54:32.708Z,23.96
2022-12-08T01:54:42.717Z,23.95
2022-12-08T01:54:52.722Z,23.95
2022-12-08T01:55:02.737Z,23.96
2022-12-08T01:55:12.745Z,23.95
2022-12-08T01:55:22.759Z,23.95
2022-12-08T01:55:32.760Z,23.95
2022-12-08T01:55:42.830Z,23.95
2022-12-08T01:55:52.838Z,23.96
2022-12-08T01:56:02.845Z,23.95
2022-12-08T01:56:12.846Z,23.95
2022-12-08T01:56:22.851Z,23.94
2022-12-08T01:56:32.860Z,23.95
2022-12-08T01:56:42.869Z,23.95
2022-12-08T01:56:52.879Z,23.95
2022-12-08T01:57:02.886Z,23.94
2022-12-08T01:57:13.008Z,23.94
2022-12-08T01:57:23.011Z,23.94
2022-12-08T01:57:33.020Z,23.94
2022-12-08T01:57:43.032Z,23.94
2022-12-08T01:57:53.039Z,23.94
2022-12-08T01:58:03.299Z,23.94
2022-12-08T01:58:13.420Z,23.94
2022-12-08T01:58:23.430Z,23.94
2022-12-08T01:58:33.702Z,23.93
2022-12-08T01:58:43.701Z,23.93
2022-12-08T01:58:53.704Z,23.93
2022-12-08T01:59:03.712Z,23.92
2022-12-08T01:59:13.727Z,23.93
2022-12-08T01:59:23.730Z,23.92
2022-12-08T01:59:33.739Z,23.92
2022-12-08T01:59:43.745Z,23.92
2022-12-08T01:59:53.756Z,23.92
2022-12-08T02:00:04.207Z,23.92
2022-12-08T02:00:13.848Z,23.91
2022-12-08T02:00:23.868Z,23.91
2022-12-08T02:00:33.999Z,23.91
2022-12-08T02:00:44.038Z,23.91
2022-12-08T02:00:54.139Z,23.91
2022-12-08T02:01:04.091Z,23.91
2022-12-08T02:01:14.192Z,23.91
2022-12-08T02:01:24.524Z,23.90
2022-12-08T02:01:34.604Z,23.90
2022-12-08T02:01:44.637Z,23.89
2022-12-08T02:01:54.817Z,23.90
2022-12-08T02:02:04.777Z,23.90
2022-12-08T02:02:14.921Z,23.90
2022-12-08T02:02:24.877Z,23.90
2022-12-08T02:02:35.112Z,23.90
2022-12-08T02:02:45.247Z,23.90
2022-12-08T02:02:55.204Z,23.90
2022-12-08T02:03:05.614Z,23.90
2022-12-08T02:03:15.533Z,23.90
2022-12-08T02:03:25.534Z,23.90
2022-12-08T02:03:35.541Z,23.90
2022-12-08T02:03:45.550Z,23.90
2022-12-08T02:03:55.580Z,23.90
2022-12-08T02:04:05.577Z,23.90
2022-12-08T02:04:15.604Z,23.90
2022-12-08T02:04:25.726Z,23.90
2022-12-08T02:04:35.737Z,23.91
2022-12-08T02:04:46.003Z,23.90
2022-12-08T02:04:56.002Z,23.90
2022-12-08T02:05:06.130Z,23.90
2022-12-08T02:05:16.409Z,23.90
2022-12-08T02:05:26.529Z,23.90
2022-12-08T02:05:36.528Z,23.91
2022-12-08T02:05:46.789Z,23.90
2022-12-08T02:05:56.789Z,23.90
2022-12-08T02:06:06.795Z,23.90
2022-12-08T02:06:16.793Z,23.90
2022-12-08T02:06:26.813Z,23.89
2022-12-08T02:06:36.811Z,23.89
2022-12-08T02:06:46.937Z,23.89
2022-12-08T02:06:56.941Z,23.89
2022-12-08T02:07:08.363Z,23.90
2022-12-08T02:07:17.066Z,23.88
2022-12-08T02:07:27.211Z,23.89
2022-12-08T02:07:37.347Z,23.89
2022-12-08T02:07:47.315Z,23.89
2022-12-08T02:07:57.388Z,23.88
2022-12-08T02:08:07.454Z,23.88
2022-12-08T02:08:17.576Z,23.88
2022-12-08T02:08:27.598Z,23.88
2022-12-08T02:08:37.522Z,23.87
2022-12-08T02:08:47.526Z,23.87
2022-12-08T02:08:57.526Z,23.88
2022-12-08T02:09:07.905Z,23.87
2022-12-08T02:09:17.913Z,23.87
2022-12-08T02:09:27.912Z,23.87